Time;durP1;ratioP1;P1;durP2;ratioP2;P2;SDS_P1;SDS_P2;PMS_P1;PMS_P2;Temp;Humidity;BMP_temperature;BMP_pressure;BME280_temperature;BME280_humidity;BME280_pressure;Samples;Min_cycle;Max_cycle;Signal;HPM_P1;HPM_P2
2023/11/28 00:01:52;;;;;;;1.23;0.90;;;3.00;93.40;;;;;;5148216;27;20042;-76
2023/11/28 00:04:17;;;;;;;1.40;1.15;;;3.00;93.40;;;;;;5135003;27;20031;-76
2023/11/28 00:06:47;;;;;;;1.77;1.27;;;3.10;93.40;;;;;;5174537;27;20054;-76
2023/11/28 00:09:13;;;;;;;1.60;1.02;;;3.10;93.40;;;;;;5155108;27;20054;-77
2023/11/28 00:11:39;;;;;;;1.90;1.50;;;3.00;93.40;;;;;;5167717;27;20050;-76
2023/11/28 00:14:05;;;;;;;1.63;1.25;;;3.00;93.40;;;;;;5134806;27;20091;-76
2023/11/28 00:16:30;;;;;;;1.42;1.17;;;3.00;93.40;;;;;;5149555;27;20051;-76
2023/11/28 00:18:56;;;;;;;3.13;1.65;;;3.00;93.40;;;;;;5150783;27;20387;-76
2023/11/28 00:21:22;;;;;;;3.05;1.92;;;2.90;93.30;;;;;;5169080;27;20030;-76
2023/11/28 00:23:47;;;;;;;2.28;1.55;;;2.90;93.30;;;;;;5170207;27;20039;-76
2023/11/28 00:26:14;;;;;;;3.15;1.77;;;2.90;93.40;;;;;;5166629;27;20041;-76
2023/11/28 00:28:43;;;;;;;2.85;1.73;;;2.90;93.40;;;;;;5152078;27;20039;-76
2023/11/28 00:31:08;;;;;;;2.38;1.70;;;2.90;93.40;;;;;;5169439;27;20042;-75
2023/11/28 00:33:35;;;;;;;2.88;1.70;;;2.90;93.40;;;;;;5167364;27;20121;-76
2023/11/28 00:36:01;;;;;;;2.60;1.70;;;2.90;93.40;;;;;;5168151;27;20042;-76
2023/11/28 00:38:27;;;;;;;2.28;1.48;;;2.90;93.40;;;;;;5167504;27;20057;-76
2023/11/28 00:40:52;;;;;;;2.50;1.70;;;2.90;93.40;;;;;;5132719;27;20043;-76
2023/11/28 00:43:18;;;;;;;2.92;1.60;;;2.80;93.40;;;;;;5147557;27;20047;-75
2023/11/28 00:45:44;;;;;;;2.00;1.60;;;2.80;93.60;;;;;;5148975;27;20035;-75
2023/11/28 00:48:13;;;;;;;2.30;1.40;;;2.80;93.30;;;;;;5146046;27;20035;-76
2023/11/28 00:50:38;;;;;;;2.75;1.75;;;2.80;93.30;;;;;;5148514;27;20046;-75
2023/11/28 00:53:04;;;;;;;2.05;1.40;;;2.80;93.40;;;;;;5144058;27;20035;-75
2023/11/28 00:55:30;;;;;;;2.53;1.63;;;2.90;93.40;;;;;;5166780;27;20532;-75
2023/11/28 00:57:56;;;;;;;2.28;1.60;;;2.80;93.30;;;;;;5166178;27;20091;-75
2023/11/28 01:00:21;;;;;;;2.75;1.60;;;2.80;93.40;;;;;;5164435;27;20039;-75
2023/11/28 01:02:47;;;;;;;2.92;1.60;;;2.80;93.30;;;;;;5168085;27;20045;-75
2023/11/28 01:05:14;;;;;;;1.77;1.38;;;2.80;93.30;;;;;;5171108;27;20035;-75
2023/11/28 01:07:43;;;;;;;1.88;1.35;;;2.80;93.30;;;;;;5159926;27;20030;-76
2023/11/28 01:10:09;;;;;;;1.77;1.40;;;2.70;93.30;;;;;;5136870;27;20039;-76
2023/11/28 01:12:35;;;;;;;1.73;1.23;;;2.70;93.30;;;;;;5155143;27;20165;-75
2023/11/28 01:15:01;;;;;;;1.88;1.30;;;2.80;93.40;;;;;;5155335;27;20057;-76
2023/11/28 01:17:27;;;;;;;1.67;1.25;;;2.80;93.40;;;;;;5136224;27;20042;-76
2023/11/28 01:19:53;;;;;;;2.20;1.30;;;2.70;93.40;;;;;;5136192;27;20038;-76
2023/11/28 01:22:18;;;;;;;2.08;1.30;;;2.70;93.40;;;;;;5154721;27;20521;-76
2023/11/28 01:24:44;;;;;;;1.88;1.20;;;2.70;93.40;;;;;;5155149;27;20481;-76
2023/11/28 01:27:10;;;;;;;1.67;1.35;;;2.70;93.40;;;;;;5155023;27;20401;-75
2023/11/28 01:29:36;;;;;;;1.80;1.20;;;2.60;93.40;;;;;;5136184;27;20035;-75
2023/11/28 01:32:03;;;;;;;1.50;1.17;;;2.60;93.40;;;;;;5118931;27;20031;-76
2023/11/28 01:34:28;;;;;;;1.80;1.40;;;2.60;93.40;;;;;;5154631;27;20034;-76
2023/11/28 01:36:55;;;;;;;1.75;1.15;;;2.60;93.40;;;;;;5154504;27;20164;-76
2023/11/28 01:39:20;;;;;;;2.03;1.33;;;2.60;93.40;;;;;;5136672;27;20035;-76
2023/11/28 01:41:47;;;;;;;1.80;1.20;;;2.60;93.30;;;;;;5118826;27;20043;-76
2023/11/28 01:44:14;;;;;;;1.52;1.10;;;2.60;93.30;;;;;;5118897;27;20065;-76
2023/11/28 01:46:44;;;;;;;2.25;1.20;;;2.70;93.40;;;;;;5153650;27;20512;-76
2023/11/28 01:49:11;;;;;;;2.22;1.20;;;2.60;93.30;;;;;;5135558;27;20490;-76
2023/11/28 01:51:38;;;;;;;1.50;1.00;;;2.60;93.30;;;;;;5101263;27;20043;-76
2023/11/28 01:54:06;;;;;;;1.48;0.98;;;2.70;93.30;;;;;;5135677;27;20042;-76
2023/11/28 01:56:33;;;;;;;1.80;1.17;;;2.60;93.30;;;;;;5154742;27;20050;-75
2023/11/28 01:59:00;;;;;;;1.42;1.02;;;2.60;93.30;;;;;;5154709;27;20046;-76
2023/11/28 02:01:28;;;;;;;1.90;1.05;;;2.60;93.30;;;;;;5154005;27;20054;-76
2023/11/28 02:03:53;;;;;;;1.67;1.17;;;2.60;93.30;;;;;;5135598;27;20047;-76
2023/11/28 02:06:19;;;;;;;1.77;1.17;;;2.60;93.30;;;;;;5154426;27;20034;-76
2023/11/28 02:08:45;;;;;;;1.95;1.35;;;2.50;93.30;;;;;;5133657;27;20031;-76
2023/11/28 02:11:14;;;;;;;1.65;1.20;;;2.50;93.30;;;;;;5135793;27;20043;-77
2023/11/28 02:13:40;;;;;;;1.77;1.25;;;2.50;93.30;;;;;;5154263;27;20090;-76
2023/11/28 02:16:11;;;;;;;1.70;1.13;;;2.50;93.30;;;;;;5133929;27;20429;-77
2023/11/28 02:18:38;;;;;;;1.30;1.02;;;2.50;93.30;;;;;;5154331;27;20074;-76
2023/11/28 02:21:04;;;;;;;1.15;0.98;;;2.50;93.30;;;;;;5136013;27;20117;-76
2023/11/28 02:23:31;;;;;;;1.63;1.20;;;2.50;93.30;;;;;;5135173;27;20031;-76
2023/11/28 02:26:02;;;;;;;2.53;1.45;;;2.40;93.30;;;;;;5135597;27;20051;-76
2023/11/28 02:28:27;;;;;;;2.22;1.23;;;2.50;93.40;;;;;;5101257;27;20050;-76
2023/11/28 02:30:55;;;;;;;1.50;1.00;;;2.50;93.30;;;;;;5116761;27;20433;-77
2023/11/28 02:33:21;;;;;;;1.92;1.13;;;2.50;93.40;;;;;;5140212;27;20057;-76
2023/11/28 02:35:46;;;;;;;1.63;1.23;;;2.40;93.30;;;;;;5132589;27;20096;-76
2023/11/28 02:38:13;;;;;;;2.10;1.13;;;2.40;93.30;;;;;;5169158;27;20507;-75
2023/11/28 02:40:39;;;;;;;1.80;1.10;;;2.40;93.30;;;;;;5165875;27;20070;-76
2023/11/28 02:43:04;;;;;;;1.88;1.10;;;2.40;93.30;;;;;;5164832;27;20039;-76
2023/11/28 02:45:30;;;;;;;1.98;1.30;;;2.40;93.30;;;;;;5130235;27;20073;-76
2023/11/28 02:47:56;;;;;;;1.98;1.30;;;2.40;93.30;;;;;;5148781;27;20031;-76
2023/11/28 02:50:21;;;;;;;1.63;1.10;;;2.40;93.30;;;;;;5131801;27;20074;-76
2023/11/28 02:52:47;;;;;;;1.55;1.27;;;2.50;93.30;;;;;;5106218;27;20099;-76
2023/11/28 02:55:13;;;;;;;1.10;1.00;;;2.40;93.30;;;;;;5135159;27;20034;-77
2023/11/28 02:57:39;;;;;;;1.90;1.40;;;2.40;93.30;;;;;;5155260;27;20184;-76
2023/11/28 03:00:06;;;;;;;1.95;1.45;;;2.40;93.30;;;;;;5136238;27;20598;-76
2023/11/28 03:02:34;;;;;;;1.40;1.13;;;2.40;93.30;;;;;;5157394;27;20045;-76
2023/11/28 03:05:00;;;;;;;2.22;1.35;;;2.40;93.30;;;;;;5121114;27;20034;-76
2023/11/28 03:07:26;;;;;;;1.92;1.38;;;2.40;93.30;;;;;;5137041;27;20116;-76
2023/11/28 03:09:51;;;;;;;1.65;1.13;;;2.40;93.30;;;;;;5136218;27;20042;-76
2023/11/28 03:12:17;;;;;;;2.08;1.30;;;2.40;93.20;;;;;;5138393;27;20053;-76
2023/11/28 03:14:43;;;;;;;1.95;1.30;;;2.40;93.20;;;;;;5121097;27;20129;-77
2023/11/28 03:17:08;;;;;;;2.78;1.67;;;2.50;93.20;;;;;;5119334;27;20039;-76
2023/11/28 03:19:34;;;;;;;2.08;1.30;;;2.50;93.20;;;;;;5120639;27;20482;-75
2023/11/28 03:22:00;;;;;;;2.25;1.42;;;2.40;93.20;;;;;;5156557;27;20371;-76
2023/11/28 03:24:26;;;;;;;2.45;1.35;;;2.40;93.20;;;;;;5138030;27;20034;-76
2023/11/28 03:26:52;;;;;;;3.53;1.50;;;2.40;93.20;;;;;;5137962;27;20053;-75
2023/11/28 03:29:18;;;;;;;2.50;1.50;;;2.40;93.20;;;;;;5156486;27;20042;-75
2023/11/28 03:31:44;;;;;;;2.67;1.60;;;2.40;93.20;;;;;;5121238;27;20402;-77
2023/11/28 03:34:10;;;;;;;2.33;1.40;;;2.30;93.20;;;;;;5103843;27;20035;-76
2023/11/28 03:36:36;;;;;;;3.05;1.52;;;2.30;93.20;;;;;;5156635;27;20035;-76
2023/11/28 03:39:01;;;;;;;2.65;1.70;;;2.20;93.10;;;;;;5156996;27;20386;-77
2023/11/28 03:41:27;;;;;;;2.78;1.60;;;2.30;93.10;;;;;;5120801;27;20071;-76
2023/11/28 03:43:55;;;;;;;3.20;1.70;;;2.30;93.10;;;;;;5157337;27;20471;-77
2023/11/28 03:46:21;;;;;;;1.95;1.40;;;2.20;93.10;;;;;;5132999;27;20049;-77
2023/11/28 03:48:47;;;;;;;2.58;1.40;;;2.20;93.10;;;;;;5169441;27;20030;-76
2023/11/28 03:51:13;;;;;;;2.25;1.30;;;2.10;93.10;;;;;;5133393;27;20047;-76
2023/11/28 03:53:39;;;;;;;2.35;1.38;;;2.10;93.10;;;;;;5134982;27;20051;-76
2023/11/28 03:56:06;;;;;;;2.50;1.42;;;2.00;93.10;;;;;;5151372;27;20079;-76
2023/11/28 03:58:32;;;;;;;1.65;1.00;;;2.00;93.10;;;;;;5150716;27;20039;-76
2023/11/28 04:00:58;;;;;;;1.17;0.95;;;1.90;93.10;;;;;;5147877;27;20067;-76
2023/11/28 04:03:24;;;;;;;1.13;0.82;;;1.80;93.10;;;;;;5149727;27;20090;-76
2023/11/28 04:05:50;;;;;;;1.23;0.90;;;1.80;93.20;;;;;;5148883;27;20406;-76
2023/11/28 04:08:15;;;;;;;1.30;0.80;;;1.70;93.20;;;;;;5133078;27;20125;-76
2023/11/28 04:10:41;;;;;;;1.50;0.95;;;1.60;93.20;;;;;;5146033;27;20054;-76
2023/11/28 04:13:07;;;;;;;1.13;0.70;;;1.50;93.30;;;;;;5149154;27;20039;-76
2023/11/28 04:15:33;;;;;;;1.10;0.90;;;1.50;93.30;;;;;;5145482;27;20035;-76
2023/11/28 04:18:00;;;;;;;1.50;0.95;;;1.50;93.30;;;;;;5125809;27;20042;-75
2023/11/28 04:20:27;;;;;;;1.58;0.90;;;1.40;93.30;;;;;;5106323;27;20047;-77
2023/11/28 04:22:52;;;;;;;0.63;0.63;;;1.30;93.30;;;;;;5139288;27;20047;-76
2023/11/28 04:25:18;;;;;;;0.60;0.50;;;1.30;93.30;;;;;;5120161;28;20054;-76
2023/11/28 04:27:44;;;;;;;1.02;0.65;;;1.30;93.40;;;;;;5120838;28;20518;-76
2023/11/28 04:30:11;;;;;;;0.65;0.50;;;1.10;93.30;;;;;;5135864;27;20039;-76
2023/11/28 04:32:36;;;;;;;1.17;0.75;;;1.20;93.40;;;;;;5119173;27;20066;-77
2023/11/28 04:35:03;;;;;;;0.50;0.50;;;1.20;93.40;;;;;;5100934;27;20039;-76
2023/11/28 04:37:29;;;;;;;0.45;0.43;;;1.10;93.40;;;;;;5118382;28;20459;-76
2023/11/28 04:39:55;;;;;;;0.85;0.57;;;1.00;93.40;;;;;;5118852;28;20035;-76
2023/11/28 04:42:21;;;;;;;0.50;0.50;;;1.00;93.40;;;;;;5136725;27;20093;-77
2023/11/28 04:44:47;;;;;;;0.40;0.30;;;1.10;93.40;;;;;;5137153;27;20043;-76
2023/11/28 04:47:13;;;;;;;0.40;0.40;;;1.00;93.40;;;;;;5140250;27;20073;-76
2023/11/28 04:49:39;;;;;;;1.02;0.55;;;1.00;93.40;;;;;;5122381;28;20043;-77
2023/11/28 04:52:05;;;;;;;0.47;0.40;;;0.90;93.40;;;;;;5138668;27;20525;-78
2023/11/28 04:54:31;;;;;;;0.40;0.40;;;0.90;93.40;;;;;;5138363;27;20039;-77
2023/11/28 04:56:57;;;;;;;0.47;0.40;;;0.90;93.40;;;;;;5138767;27;20042;-76
2023/11/28 04:59:23;;;;;;;0.60;0.50;;;0.80;93.30;;;;;;5138512;27;20414;-76
2023/11/28 05:01:49;;;;;;;0.65;0.40;;;0.80;93.30;;;;;;5149305;27;20054;-76
2023/11/28 05:04:14;;;;;;;0.65;0.40;;;0.80;93.40;;;;;;5160819;27;20130;-76
2023/11/28 05:06:40;;;;;;;0.60;0.50;;;0.90;93.30;;;;;;5141813;27;20087;-76
2023/11/28 05:09:06;;;;;;;0.30;0.30;;;0.80;93.30;;;;;;5139321;27;20095;-76
2023/11/28 05:11:32;;;;;;;0.55;0.43;;;0.80;93.30;;;;;;5107484;27;20570;-76
2023/11/28 05:13:58;;;;;;;0.82;0.45;;;0.80;93.30;;;;;;5140584;27;20047;-76
2023/11/28 05:16:24;;;;;;;0.40;0.40;;;0.90;93.30;;;;;;5159101;27;20047;-77
2023/11/28 05:18:50;;;;;;;1.02;0.47;;;0.80;93.30;;;;;;5124929;27;20054;-76
2023/11/28 05:21:17;;;;;;;0.50;0.50;;;0.80;93.20;;;;;;5137934;27;20074;-76
2023/11/28 05:23:45;;;;;;;0.60;0.50;;;0.80;93.20;;;;;;5135610;27;20043;-75
2023/11/28 05:26:11;;;;;;;0.60;0.50;;;0.80;93.20;;;;;;5090774;28;20036;-76
2023/11/28 05:28:37;;;;;;;0.77;0.57;;;0.80;93.20;;;;;;5093255;28;20040;-76
2023/11/28 05:31:03;;;;;;;0.88;0.60;;;0.80;93.20;;;;;;5093994;28;20039;-76
2023/11/28 05:33:29;;;;;;;0.68;0.47;;;0.70;93.10;;;;;;5092083;28;20065;-76
2023/11/28 05:35:54;;;;;;;1.05;0.70;;;0.80;93.10;;;;;;5095166;28;20539;-75
2023/11/28 05:38:20;;;;;;;0.47;0.40;;;0.90;93.20;;;;;;5095886;28;20051;-77
2023/11/28 05:40:46;;;;;;;0.82;0.60;;;0.80;93.10;;;;;;5058056;28;20048;-76
2023/11/28 05:43:12;;;;;;;0.63;0.50;;;0.80;93.10;;;;;;5093779;28;20129;-76
2023/11/28 05:45:37;;;;;;;0.75;0.50;;;0.80;93.10;;;;;;5060987;28;20036;-76
2023/11/28 05:48:03;;;;;;;0.93;0.57;;;0.90;93.10;;;;;;5094309;28;20090;-76
2023/11/28 05:50:29;;;;;;;0.63;0.52;;;0.90;93.10;;;;;;5094286;28;20109;-76
2023/11/28 05:52:55;;;;;;;0.93;0.65;;;0.90;93.00;;;;;;5093900;28;20055;-76
2023/11/28 05:55:21;;;;;;;1.30;0.70;;;0.90;93.00;;;;;;5075653;28;20048;-76
2023/11/28 05:57:48;;;;;;;0.60;0.50;;;0.90;93.00;;;;;;5110253;28;20043;-77
2023/11/28 06:00:14;;;;;;;1.00;0.73;;;0.90;93.00;;;;;;5156116;27;20494;-76
2023/11/28 06:02:40;;;;;;;0.40;0.40;;;0.90;93.00;;;;;;5159220;27;20042;-76
2023/11/28 06:05:08;;;;;;;1.02;0.60;;;1.00;93.00;;;;;;5123610;27;20042;-76
2023/11/28 06:07:34;;;;;;;0.75;0.60;;;1.00;93.00;;;;;;5121435;27;20043;-76
2023/11/28 06:10:00;;;;;;;0.77;0.57;;;1.00;93.00;;;;;;5139165;27;20042;-76
2023/11/28 06:12:26;;;;;;;0.75;0.50;;;1.00;92.90;;;;;;5139198;27;20453;-76
2023/11/28 06:14:53;;;;;;;0.45;0.45;;;1.00;93.20;;;;;;5122632;27;20043;-76
2023/11/28 06:17:19;;;;;;;0.30;0.30;;;1.00;93.00;;;;;;5105910;27;20031;-76
2023/11/28 06:19:45;;;;;;;0.47;0.47;;;1.00;93.00;;;;;;5157244;27;20049;-76
2023/11/28 06:22:10;;;;;;;0.50;0.50;;;1.10;93.00;;;;;;5138723;27;20042;-77
2023/11/28 06:24:37;;;;;;;0.40;0.40;;;1.10;92.90;;;;;;5122818;27;20501;-75
2023/11/28 06:27:05;;;;;;;0.45;0.45;;;1.10;92.90;;;;;;5154673;27;20037;-75
2023/11/28 06:29:31;;;;;;;0.82;0.50;;;1.20;92.90;;;;;;5136891;27;20035;-75
2023/11/28 06:31:59;;;;;;;0.20;0.20;;;1.10;92.80;;;;;;5136934;27;20370;-75
2023/11/28 06:34:26;;;;;;;0.30;0.30;;;1.30;92.90;;;;;;5155441;27;20546;-76
2023/11/28 06:36:53;;;;;;;0.30;0.30;;;1.20;92.80;;;;;;5136564;27;20038;-75
2023/11/28 06:39:19;;;;;;;0.55;0.50;;;1.20;92.80;;;;;;5119193;27;20050;-75
2023/11/28 06:41:45;;;;;;;0.40;0.30;;;1.20;92.80;;;;;;5135937;27;20406;-75
2023/11/28 06:44:12;;;;;;;0.57;0.40;;;1.20;92.90;;;;;;5132714;27;20031;-75
2023/11/28 06:46:38;;;;;;;0.40;0.40;;;1.20;92.80;;;;;;5132958;27;20568;-76
2023/11/28 06:49:05;;;;;;;0.60;0.30;;;1.20;92.80;;;;;;5132855;27;20043;-75
2023/11/28 06:51:32;;;;;;;0.32;0.32;;;1.30;92.80;;;;;;5132940;27;20096;-76
2023/11/28 06:53:58;;;;;;;0.20;0.20;;;1.30;92.80;;;;;;5115160;27;20050;-76
2023/11/28 06:56:24;;;;;;;0.40;0.38;;;1.30;92.80;;;;;;5132755;27;20047;-76
2023/11/28 06:58:51;;;;;;;0.30;0.30;;;1.30;92.80;;;;;;5116634;27;20074;-75
2023/11/28 07:01:18;;;;;;;0.60;0.50;;;1.30;92.80;;;;;;5133112;27;20043;-76
2023/11/28 07:03:44;;;;;;;0.55;0.55;;;1.30;92.80;;;;;;5147062;27;20066;-76
2023/11/28 07:06:10;;;;;;;0.47;0.40;;;1.30;92.80;;;;;;5118163;27;20490;-76
2023/11/28 07:08:37;;;;;;;0.63;0.22;;;1.30;92.80;;;;;;5154190;27;20039;-75
2023/11/28 07:11:02;;;;;;;0.47;0.40;;;1.30;92.80;;;;;;5134858;27;20039;-75
2023/11/28 07:13:28;;;;;;;1.10;0.50;;;1.30;92.70;;;;;;5134737;27;20054;-76
2023/11/28 07:15:54;;;;;;;0.50;0.40;;;1.40;92.70;;;;;;5153835;27;20068;-75
2023/11/28 07:18:20;;;;;;;0.55;0.40;;;1.30;92.70;;;;;;5153645;27;20047;-76
2023/11/28 07:20:49;;;;;;;0.45;0.32;;;1.40;92.70;;;;;;5131052;27;20031;-75
2023/11/28 07:23:17;;;;;;;0.52;0.40;;;1.40;92.70;;;;;;5130937;27;20482;-75
2023/11/28 07:25:44;;;;;;;0.30;0.30;;;1.40;92.60;;;;;;5131140;27;20078;-75
2023/11/28 07:28:10;;;;;;;0.70;0.40;;;1.50;92.60;;;;;;5117404;27;20485;-75
2023/11/28 07:30:35;;;;;;;0.77;0.50;;;1.50;92.70;;;;;;5117579;27;20070;-75
2023/11/28 07:33:01;;;;;;;0.32;0.32;;;1.50;92.60;;;;;;5153158;27;20435;-75
2023/11/28 07:35:27;;;;;;;0.90;0.40;;;1.50;92.60;;;;;;5114118;28;20047;-75
2023/11/28 07:37:52;;;;;;;0.68;0.43;;;1.50;92.60;;;;;;5117063;27;20149;-75
2023/11/28 07:40:18;;;;;;;0.40;0.40;;;1.60;92.60;;;;;;5117446;27;20053;-74
2023/11/28 07:42:44;;;;;;;0.40;0.32;;;1.60;92.60;;;;;;5134616;27;20050;-74
2023/11/28 07:45:10;;;;;;;0.90;0.38;;;1.60;92.50;;;;;;5137096;27;20049;-75
2023/11/28 07:52:26;;;;;;;0.70;0.50;;;1.60;92.50;;;;;;5031769;28;20130;-74
2023/11/28 08:00:04;;;;;;;0.43;0.32;;;1.70;92.50;;;;;;4932933;29;20066;-75
2023/11/28 08:02:41;;;;;;;0.68;0.35;;;1.70;92.40;;;;;;4899777;29;20685;-75
2023/11/28 08:27:08;;;;;;;0.75;0.40;;;1.90;92.20;;;;;;4980699;28;20043;-75
2023/11/28 08:29:37;;;;;;;0.50;0.35;;;1.80;92.10;;;;;;4992089;28;20045;-75
2023/11/28 08:32:23;;;;;;;0.20;0.20;;;1.90;92.10;;;;;;5012100;28;20065;-75
2023/11/28 08:34:49;;;;;;;0.40;0.40;;;1.90;92.10;;;;;;5001676;28;20069;-77
2023/11/28 08:37:24;;;;;;;0.32;0.25;;;1.90;92.10;;;;;;5047552;28;20542;-76
2023/11/28 08:40:40;;;;;;;0.40;0.32;;;2.00;92.20;;;;;;5058285;28;20039;-75
2023/11/28 08:44:12;;;;;;;0.32;0.28;;;1.90;92.20;;;;;;5048870;28;20078;-75
2023/11/28 08:47:05;;;;;;;0.38;0.30;;;1.90;92.20;;;;;;5009098;28;20095;-75
2023/11/28 08:50:26;;;;;;;0.30;0.30;;;1.80;92.30;;;;;;4961282;28;20692;-75
2023/11/28 08:53:07;;;;;;;0.45;0.22;;;1.80;92.30;;;;;;4914092;29;20048;-76
2023/11/28 08:56:06;;;;;;;0.57;0.40;;;1.80;92.30;;;;;;4840301;29;20136;-76
2023/11/28 08:58:54;;;;;;;0.30;0.10;;;1.80;92.30;;;;;;4826204;29;20046;-75
2023/11/28 09:01:29;;;;;;;0.32;0.30;;;1.90;92.30;;;;;;4796772;29;20055;-75
2023/11/28 09:04:15;;;;;;;0.30;0.30;;;1.90;92.30;;;;;;4782878;29;20051;-75
2023/11/28 09:06:53;;;;;;;0.25;0.25;;;1.80;92.50;;;;;;4769930;29;20059;-76
2023/11/28 09:09:19;;;;;;;0.10;0.10;;;1.90;92.20;;;;;;4770646;29;20082;-76
2023/11/28 09:12:11;;;;;;;0.30;0.30;;;1.90;92.20;;;;;;4803539;29;20070;-76
2023/11/28 09:14:56;;;;;;;0.22;0.17;;;1.90;92.20;;;;;;4765801;30;20050;-76
2023/11/28 09:21:04;;;;;;;0.55;0.30;;;1.90;92.20;;;;;;4748290;30;20525;-76
2023/11/28 09:24:07;;;;;;;0.25;0.25;;;1.90;92.10;;;;;;4718503;30;20045;-76
2023/11/28 09:27:27;;;;;;;0.20;0.20;;;1.90;92.20;;;;;;4720715;30;20119;-76
2023/11/28 09:30:34;;;;;;;0.20;0.20;;;1.90;92.10;;;;;;4693502;30;20050;-76
2023/11/28 09:33:25;;;;;;;0.32;0.32;;;1.90;92.20;;;;;;4728620;30;20135;-75
2023/11/28 09:42:42;;;;;;;0.22;0.22;;;1.90;92.10;;;;;;4784215;29;20117;-75
2023/11/28 09:45:39;;;;;;;1.13;0.50;;;1.90;92.10;;;;;;4793308;29;20051;-76
2023/11/28 09:48:29;;;;;;;0.50;0.50;;;1.90;92.00;;;;;;4813428;29;20495;-76
2023/11/28 09:51:32;;;;;;;0.38;0.38;;;1.90;92.00;;;;;;4822882;29;20050;-76
2023/11/28 10:08:27;;;;;;;0.30;0.20;;;2.00;91.90;;;;;;4784094;29;20055;-74
2023/11/28 10:12:02;;;;;;;0.98;0.32;;;2.10;91.90;;;;;;4764984;30;20121;-76
2023/11/28 10:29:30;;;;;;;0.30;0.30;;;2.20;91.70;;;;;;4712702;30;20459;-76
2023/11/28 10:32:05;;;;;;;0.20;0.20;;;2.20;91.70;;;;;;4751204;30;20051;-76
2023/11/28 10:34:39;;;;;;;0.47;0.38;;;2.20;91.70;;;;;;4766853;30;20426;-76
2023/11/28 10:37:11;;;;;;;0.40;0.40;;;2.30;91.70;;;;;;4780969;30;20055;-75
2023/11/28 10:39:39;;;;;;;0.30;0.30;;;2.30;91.70;;;;;;4743554;30;20135;-74
2023/11/28 10:42:05;;;;;;;0.70;0.40;;;2.30;91.70;;;;;;4766532;29;20520;-75
2023/11/28 10:44:33;;;;;;;0.60;0.50;;;2.30;91.60;;;;;;4784568;30;20052;-76
2023/11/28 10:47:12;;;;;;;0.20;0.20;;;2.40;91.70;;;;;;4769492;30;20131;-76
2023/11/28 10:49:44;;;;;;;0.95;0.25;;;2.40;91.60;;;;;;4783566;30;20046;-75
2023/11/28 10:52:12;;;;;;;;;;;2.50;91.60;;;;;;4787197;29;20087;-76
2023/11/28 10:54:46;;;;;;;0.30;0.30;;;2.40;91.60;;;;;;4787387;29;20493;-75
2023/11/28 10:57:57;;;;;;;0.50;0.50;;;2.50;91.50;;;;;;4815551;29;20111;-75
2023/11/28 11:00:26;;;;;;;0.52;0.50;;;2.60;91.60;;;;;;4853067;29;21460;-75
2023/11/28 11:02:55;;;;;;;1.48;0.40;;;2.50;91.50;;;;;;4916190;29;20039;-75
2023/11/28 11:05:23;;;;;;;0.45;0.30;;;2.50;91.50;;;;;;4963227;28;20128;-75
2023/11/28 11:07:50;;;;;;;0.45;0.40;;;2.50;91.50;;;;;;5019982;28;20049;-74
2023/11/28 11:10:16;;;;;;;0.10;0.10;;;2.60;91.50;;;;;;5034810;28;20043;-76
2023/11/28 11:12:46;;;;;;;0.47;0.30;;;2.70;91.50;;;;;;5060050;28;20108;-75
2023/11/28 11:15:34;;;;;;;0.52;0.30;;;2.60;91.40;;;;;;5036129;28;20055;-76
2023/11/28 11:18:34;;;;;;;0.32;0.30;;;2.70;91.50;;;;;;5013243;28;20045;-74
2023/11/28 11:49:11;;;;;;;0.60;0.50;;;3.50;90.90;;;;;;4862420;29;20427;-77
2023/11/28 12:50:59;;;;;;;0.35;0.30;;;4.00;90.40;;;;;;4934406;29;20045;-76
2023/11/28 12:53:33;;;;;;;0.40;0.30;;;4.00;90.40;;;;;;4977108;28;20487;-76
2023/11/28 12:56:09;;;;;;;0.93;0.50;;;4.00;90.70;;;;;;4973978;28;20061;-77
2023/11/28 12:59:07;;;;;;;0.45;0.38;;;4.00;90.40;;;;;;4899700;29;20052;-76
2023/11/28 13:02:03;;;;;;;0.68;0.30;;;4.00;90.40;;;;;;4857695;29;20425;-75
2023/11/28 13:04:29;;;;;;;0.20;0.20;;;4.00;90.40;;;;;;4876620;29;20059;-76
2023/11/28 13:09:59;;;;;;;0.30;0.30;;;4.00;90.40;;;;;;4840746;29;20046;-76
2023/11/28 13:12:26;;;;;;;1.13;0.30;;;4.00;90.40;;;;;;4824875;29;20049;-76
2023/11/28 13:18:57;;;;;;;0.38;0.25;;;4.00;90.40;;;;;;4766566;30;20051;-76
2023/11/28 13:21:38;;;;;;;0.40;0.30;;;4.00;90.40;;;;;;4731657;30;20435;-76
2023/11/28 13:24:16;;;;;;;0.22;0.20;;;4.00;90.40;;;;;;4683619;30;20083;-77
2023/11/28 13:34:20;;;;;;;0.47;0.40;;;4.00;90.50;;;;;;4783942;29;20468;-76
2023/11/28 13:36:48;;;;;;;1.23;0.40;;;3.80;90.50;;;;;;4785381;30;20123;-76
2023/11/28 13:39:15;;;;;;;1.67;0.40;;;3.70;90.50;;;;;;4785347;29;20101;-76
2023/11/28 13:41:41;;;;;;;0.30;0.30;;;3.60;90.50;;;;;;4802031;29;20078;-76
2023/11/28 13:44:06;;;;;;;1.05;0.30;;;3.70;90.60;;;;;;4803427;29;20074;-77
2023/11/28 13:46:32;;;;;;;0.30;0.30;;;3.70;90.60;;;;;;4817859;29;20051;-76
2023/11/28 13:48:58;;;;;;;0.30;0.30;;;3.70;90.60;;;;;;4878621;29;20047;-77
2023/11/28 13:51:24;;;;;;;0.68;0.40;;;3.80;90.50;;;;;;4930561;28;20416;-76
2023/11/28 13:53:50;;;;;;;0.20;0.20;;;3.90;90.50;;;;;;4982867;28;20069;-76
2023/11/28 13:56:18;;;;;;;0.57;0.35;;;3.90;90.40;;;;;;5011347;28;20061;-75
2023/11/28 13:58:44;;;;;;;1.20;0.50;;;3.90;90.40;;;;;;5011545;28;20046;-77
2023/11/28 14:01:11;;;;;;;0.45;0.40;;;3.90;90.30;;;;;;4994326;28;20052;-76
2023/11/28 14:03:39;;;;;;;0.50;0.47;;;3.90;90.20;;;;;;4962256;28;20044;-76
2023/11/28 14:06:05;;;;;;;0.20;0.20;;;3.90;90.20;;;;;;4916807;29;20040;-76
2023/11/28 14:08:33;;;;;;;0.40;0.40;;;3.90;90.20;;;;;;4917407;29;20146;-76
2023/11/28 14:11:02;;;;;;;0.38;0.35;;;3.90;90.20;;;;;;4968631;28;20136;-76
2023/11/28 14:13:32;;;;;;;0.75;0.57;;;3.90;90.20;;;;;;5010447;28;20112;-77
2023/11/28 14:15:58;;;;;;;0.32;0.32;;;3.90;90.20;;;;;;5017086;28;20094;-77
2023/11/28 14:19:11;;;;;;;0.30;0.30;;;3.90;90.20;;;;;;5000017;28;20473;-78
2023/11/28 14:21:54;;;;;;;0.40;0.40;;;3.90;90.20;;;;;;4969743;28;20047;-75
2023/11/28 14:24:25;;;;;;;0.40;0.40;;;3.80;90.20;;;;;;4970835;28;20049;-76
2023/11/28 14:29:50;;;;;;;0.40;0.40;;;4.00;90.30;;;;;;4924439;28;20505;-75
2023/11/28 14:32:17;;;;;;;0.55;0.47;;;4.20;90.10;;;;;;4920254;28;20138;-76
2023/11/28 14:34:44;;;;;;;0.52;0.30;;;4.30;89.60;;;;;;4936010;28;20133;-74
2023/11/28 14:37:10;;;;;;;0.30;0.30;;;4.30;89.20;;;;;;4956514;28;20137;-74
2023/11/28 14:39:44;;;;;;;0.25;0.25;;;4.40;89.20;;;;;;4958154;28;20487;-74
2023/11/28 14:42:09;;;;;;;0.30;0.30;;;4.20;89.30;;;;;;4953273;28;20138;-74
2023/11/28 14:44:35;;;;;;;0.30;0.30;;;4.00;89.50;;;;;;4937793;28;20523;-75
2023/11/28 14:47:01;;;;;;;0.38;0.38;;;3.90;89.80;;;;;;4943309;28;20039;-74
2023/11/28 14:49:27;;;;;;;0.30;0.30;;;3.90;90.00;;;;;;4940763;28;20047;-75
2023/11/28 14:56:11;;;;;;;0.30;0.30;;;3.70;90.50;;;;;;4944483;28;20103;-75
2023/11/28 14:58:41;;;;;;;0.30;0.15;;;3.60;90.30;;;;;;4903212;29;20131;-74
2023/11/28 15:01:17;;;;;;;0.20;0.20;;;3.50;90.40;;;;;;4895895;29;20147;-74
2023/11/28 15:03:43;;;;;;;0.25;0.25;;;3.40;90.40;;;;;;4909669;28;20091;-74
2023/11/28 15:06:09;;;;;;;0.17;0.17;;;3.40;90.50;;;;;;4955021;28;20408;-76
2023/11/28 15:08:37;;;;;;;0.20;0.20;;;3.40;90.50;;;;;;4923704;28;20055;-75
2023/11/28 15:13:56;;;;;;;0.52;0.40;;;3.20;90.70;;;;;;4953688;28;20102;-74
2023/11/28 15:16:33;;;;;;;0.30;0.30;;;3.10;90.70;;;;;;4935885;29;20043;-75
2023/11/28 15:19:44;;;;;;;0.15;0.15;;;3.10;90.70;;;;;;4917105;29;20045;-75
2023/11/28 15:30:34;;;;;;;0.43;0.20;;;2.80;90.90;;;;;;4785725;29;20126;-76
2023/11/28 15:53:49;;;;;;;0.30;0.30;;;2.30;91.20;;;;;;4857554;29;20629;-75
2023/11/28 16:00:00;;;;;;;0.30;0.30;;;2.20;91.20;;;;;;4840752;29;20426;-75
2023/11/28 16:06:36;;;;;;;0.63;0.40;;;2.10;91.30;;;;;;4771979;30;21317;-76
2023/11/28 16:09:13;;;;;;;0.45;0.40;;;2.20;91.40;;;;;;4719023;30;20048;-76
2023/11/28 16:11:52;;;;;;;0.88;0.40;;;2.20;91.30;;;;;;4696899;30;20094;-75
2023/11/28 16:14:18;;;;;;;0.43;0.40;;;2.10;91.20;;;;;;4693465;30;20054;-75
2023/11/28 16:16:58;;;;;;;0.43;0.43;;;2.20;91.20;;;;;;4710872;30;20068;-75
2023/11/28 16:27:55;;;;;;;0.30;0.30;;;2.10;91.10;;;;;;4638895;30;20070;-74
2023/11/28 16:31:22;;;;;;;0.30;0.30;;;2.10;91.10;;;;;;4656739;30;20051;-74
2023/11/28 16:33:48;;;;;;;0.50;0.50;;;2.10;91.10;;;;;;4636735;30;20066;-74
2023/11/28 16:36:14;;;;;;;0.73;0.47;;;1.90;91.40;;;;;;4647222;30;20046;-74
2023/11/28 16:38:41;;;;;;;0.52;0.40;;;1.90;91.10;;;;;;4682050;30;20043;-74
2023/11/28 17:20:45;;;;;;;0.60;0.40;;;1.60;91.30;;;;;;4913843;29;20142;-76
2023/11/28 17:23:10;;;;;;;;;;;1.70;91.20;;;;;;4915316;29;20044;-77
2023/11/28 17:25:36;;;;;;;0.70;0.40;;;1.70;91.20;;;;;;4914779;29;20386;-77
2023/11/28 17:28:02;;;;;;;0.52;0.43;;;1.70;91.20;;;;;;4914356;29;20588;-76
2023/11/28 17:30:28;;;;;;;0.73;0.50;;;1.70;91.10;;;;;;4914435;29;20052;-76
2023/11/28 17:32:53;;;;;;;0.65;0.43;;;1.70;91.20;;;;;;4914680;29;20071;-77
2023/11/28 17:35:19;;;;;;;1.25;0.77;;;1.70;91.20;;;;;;4907494;29;20044;-77
2023/11/28 17:37:45;;;;;;;1.35;0.68;;;1.70;91.10;;;;;;4892594;29;20035;-76
2023/11/28 17:40:11;;;;;;;1.67;0.80;;;1.60;91.10;;;;;;5029356;28;20038;-76
2023/11/28 17:42:37;;;;;;;1.60;0.70;;;1.70;91.10;;;;;;5070449;28;20491;-77